createdAt,value
2022-12-03T00:00:12.755Z,22.20
2022-12-03T00:02:41.447Z,23.57
2022-12-03T00:05:10.083Z,21.37
2022-12-03T00:07:37.604Z,22.40
2022-12-03T00:10:06.410Z,23.40
2022-12-03T00:12:34.147Z,21.03
2022-12-03T00:15:01.653Z,20.83
2022-12-03T00:17:29.178Z,20.87
2022-12-03T00:19:56.620Z,21.10
2022-12-03T00:22:24.129Z,20.27
2022-12-03T00:24:51.941Z,21.77
2022-12-03T00:27:19.667Z,20.13
2022-12-03T00:29:47.110Z,21.27
2022-12-03T00:32:14.485Z,23.53
2022-12-03T00:34:41.913Z,22.43
2022-12-03T00:37:09.365Z,21.93
2022-12-03T00:39:36.811Z,21.70
2022-12-03T00:42:04.712Z,20.43
2022-12-03T00:44:32.161Z,19.93
2022-12-03T00:46:59.638Z,20.77
2022-12-03T00:49:27.176Z,19.50
2022-12-03T00:51:54.619Z,20.80
2022-12-03T00:54:25.629Z,21.13
2022-12-03T00:56:57.595Z,21.03
2022-12-03T00:59:25.029Z,20.80
2022-12-03T01:01:52.717Z,21.07
2022-12-03T01:04:20.409Z,21.57
2022-12-03T01:06:47.895Z,21.03
2022-12-03T01:09:15.379Z,19.87
2022-12-03T01:11:42.838Z,20.80
2022-12-03T01:14:17.873Z,21.80
2022-12-03T01:16:46.246Z,21.53
2022-12-03T01:19:17.756Z,19.87
2022-12-03T01:22:50.659Z,20.00
2022-12-03T01:25:18.411Z,22.00
2022-12-03T01:27:45.896Z,22.10
2022-12-03T01:30:14.264Z,21.20
2022-12-03T01:32:41.656Z,21.33
2022-12-03T01:35:09.530Z,21.30
2022-12-03T01:37:37.027Z,21.43
2022-12-03T01:40:06.239Z,21.10
2022-12-03T01:42:41.801Z,20.73
2022-12-03T01:45:24.173Z,20.30
2022-12-03T01:47:51.856Z,19.50
2022-12-03T01:50:32.455Z,18.80
2022-12-03T01:53:03.338Z,20.60
2022-12-03T01:55:31.130Z,19.97
2022-12-03T01:58:01.209Z,19.97
2022-12-03T02:00:29.365Z,19.03
2022-12-03T02:03:12.023Z,18.43
2022-12-03T02:05:39.681Z,19.03
2022-12-03T02:08:29.967Z,18.67
2022-12-03T02:11:30.697Z,19.80
2022-12-03T02:14:09.012Z,18.60
2022-12-03T02:16:39.657Z,18.90
2022-12-03T02:19:25.821Z,18.93
2022-12-03T02:22:15.915Z,19.80
2022-12-03T02:25:07.257Z,18.27
2022-12-03T02:27:34.684Z,18.30
2022-12-03T02:30:02.328Z,19.07
2022-12-03T02:32:29.774Z,19.63
2022-12-03T02:34:57.221Z,18.47
2022-12-03T02:37:31.454Z,17.97
2022-12-03T02:40:06.439Z,19.67
2022-12-03T02:42:36.951Z,19.27
2022-12-03T02:45:08.664Z,18.93
2022-12-03T02:47:45.733Z,18.90
2022-12-03T02:50:17.691Z,18.40
2022-12-03T02:52:46.803Z,19.00
2022-12-03T02:55:17.305Z,18.10
2022-12-03T02:57:47.320Z,18.63
2022-12-03T03:00:16.793Z,18.67
2022-12-03T03:02:46.439Z,19.37
2022-12-03T03:05:15.427Z,17.47
2022-12-03T03:07:43.141Z,17.63
2022-12-03T03:10:15.703Z,18.87
2022-12-03T03:12:43.671Z,18.80
2022-12-03T03:15:12.512Z,18.27
2022-12-03T03:17:40.812Z,19.30
2022-12-03T03:20:10.192Z,18.30
2022-12-03T03:22:41.756Z,19.13
2022-12-03T03:25:18.329Z,19.97
2022-12-03T03:27:46.124Z,19.03
2022-12-03T03:30:14.569Z,19.40
2022-12-03T03:32:42.970Z,19.00
2022-12-03T03:35:12.339Z,21.40
2022-12-03T03:37:40.034Z,24.43
2022-12-03T03:40:08.901Z,22.67
2022-12-03T03:42:36.816Z,21.13
2022-12-03T03:45:06.595Z,22.20
2022-12-03T03:47:34.219Z,21.03
2022-12-03T03:50:02.307Z,20.73
2022-12-03T03:52:30.503Z,20.17
2022-12-03T03:54:58.203Z,19.90
2022-12-03T03:57:25.828Z,19.77
2022-12-03T03:59:53.248Z,20.60
2022-12-03T04:02:23.413Z,20.50
2022-12-03T04:04:51.907Z,21.07
2022-12-03T04:07:19.916Z,19.57
2022-12-03T04:09:47.407Z,21.20
2022-12-03T04:12:33.466Z,21.23
2022-12-03T04:15:00.957Z,22.33
2022-12-03T04:17:28.388Z,21.57
2022-12-03T04:19:56.190Z,22.00
2022-12-03T04:22:42.003Z,22.10
2022-12-03T04:25:29.341Z,22.37
2022-12-03T04:28:15.423Z,23.40
2022-12-03T04:30:42.932Z,22.93
2022-12-03T04:33:28.926Z,24.10
2022-12-03T04:35:56.507Z,23.83
2022-12-03T04:38:24.123Z,23.67
2022-12-03T04:41:06.515Z,22.53
2022-12-03T04:43:55.287Z,24.27
2022-12-03T04:46:22.818Z,23.97
2022-12-03T04:48:50.239Z,24.50
2022-12-03T04:51:17.655Z,23.20
2022-12-03T04:53:46.366Z,22.00
2022-12-03T04:56:13.971Z,22.67
2022-12-03T04:58:41.415Z,23.13
2022-12-03T05:01:08.845Z,22.20
2022-12-03T05:03:36.448Z,21.63
2022-12-03T05:06:04.212Z,20.43
2022-12-03T05:08:31.667Z,22.03
2022-12-03T05:10:59.070Z,20.17
2022-12-03T05:13:26.416Z,22.07
2022-12-03T05:15:53.843Z,21.33
2022-12-03T05:18:21.257Z,21.27
2022-12-03T05:20:53.270Z,19.67
2022-12-03T05:23:21.481Z,20.13
2022-12-03T05:25:49.094Z,19.80
2022-12-03T05:28:16.796Z,20.43
2022-12-03T05:30:44.358Z,19.90
2022-12-03T05:33:11.871Z,19.87
2022-12-03T05:35:39.273Z,19.43
2022-12-03T05:38:06.715Z,20.20
2022-12-03T05:40:34.227Z,20.43
2022-12-03T05:43:02.017Z,19.60
2022-12-03T05:45:33.389Z,20.10
2022-12-03T05:48:02.469Z,19.13
2022-12-03T05:50:34.455Z,20.03
2022-12-03T05:53:02.228Z,18.50
2022-12-03T05:55:30.345Z,32.40
2022-12-03T05:57:58.112Z,21.93
2022-12-03T06:00:29.514Z,25.03
2022-12-03T06:02:57.643Z,29.60
2022-12-03T06:05:26.075Z,24.87
2022-12-03T06:07:54.131Z,25.80
2022-12-03T06:10:24.902Z,23.33
2022-12-03T06:12:52.770Z,24.80
2022-12-03T06:15:20.893Z,22.87
2022-12-03T06:17:48.359Z,22.93
2022-12-03T06:20:20.508Z,23.10
2022-12-03T06:22:48.400Z,24.23
2022-12-03T06:25:16.721Z,22.93
2022-12-03T06:27:44.619Z,23.57
2022-12-03T06:30:15.386Z,23.13
2022-12-03T06:32:42.799Z,22.83
2022-12-03T06:35:10.643Z,23.97
2022-12-03T06:37:38.090Z,24.83
2022-12-03T06:40:06.526Z,25.60
2022-12-03T06:42:33.919Z,27.03
2022-12-03T06:45:01.259Z,22.87
2022-12-03T06:47:28.755Z,22.07
2022-12-03T06:49:56.151Z,21.30
2022-12-03T06:52:24.231Z,25.53
2022-12-03T06:54:52.028Z,22.47
2022-12-03T06:57:19.648Z,20.73
2022-12-03T06:59:47.089Z,23.10
2022-12-03T07:02:14.532Z,22.97
2022-12-03T07:04:46.103Z,22.53
2022-12-03T07:07:14.910Z,22.27
2022-12-03T07:09:42.356Z,23.43
2022-12-03T07:12:09.804Z,22.90
2022-12-03T07:14:37.255Z,21.80
2022-12-03T07:17:04.774Z,17.67
2022-12-03T07:19:33.064Z,19.10
2022-12-03T07:22:01.223Z,22.33
2022-12-03T07:24:28.821Z,20.73
2022-12-03T07:26:56.262Z,22.03
2022-12-03T07:29:23.715Z,20.83
2022-12-03T07:31:51.483Z,19.10
2022-12-03T07:34:19.069Z,19.47
2022-12-03T07:36:46.479Z,18.77
2022-12-03T07:39:14.500Z,19.90
2022-12-03T07:41:41.949Z,19.73
2022-12-03T07:44:14.305Z,18.50
2022-12-03T07:46:43.472Z,23.17
2022-12-03T07:49:12.403Z,19.03
2022-12-03T07:51:40.070Z,18.93
2022-12-03T07:54:07.803Z,23.67
2022-12-03T07:56:35.317Z,20.03
2022-12-03T07:59:02.847Z,21.73
2022-12-03T08:01:30.452Z,24.00
2022-12-03T08:03:58.042Z,22.97
2022-12-03T08:06:25.487Z,18.90
2022-12-03T08:08:52.918Z,19.00
2022-12-03T08:11:20.319Z,20.10
2022-12-03T08:13:47.788Z,20.27
2022-12-03T08:16:21.530Z,20.50
2022-12-03T08:18:51.094Z,18.93
2022-12-03T08:21:21.184Z,19.63
2022-12-03T08:23:48.802Z,20.73
2022-12-03T08:26:26.080Z,19.27
2022-12-03T08:28:54.617Z,18.30
2022-12-03T08:31:33.471Z,18.77
2022-12-03T08:34:27.000Z,19.07
2022-12-03T08:37:02.375Z,24.80
2022-12-03T08:39:38.002Z,26.60
2022-12-03T08:42:26.846Z,21.03
2022-12-03T08:44:55.934Z,21.03
2022-12-03T08:47:24.857Z,23.00
2022-12-03T08:50:03.475Z,21.10
2022-12-03T08:52:35.049Z,20.93
2022-12-03T08:55:35.150Z,21.37
2022-12-03T08:58:23.622Z,20.47
2022-12-03T09:01:12.617Z,21.33
2022-12-03T09:03:49.713Z,19.67
2022-12-03T09:06:17.384Z,21.83
2022-12-03T09:08:45.217Z,23.83
2022-12-03T09:11:13.291Z,20.93
2022-12-03T09:13:41.161Z,20.90
2022-12-03T09:16:08.961Z,20.90
2022-12-03T09:18:36.520Z,21.67
2022-12-03T09:21:04.084Z,25.23
2022-12-03T09:23:31.443Z,20.03
2022-12-03T09:25:59.756Z,19.83
2022-12-03T09:28:27.199Z,20.10
2022-12-03T09:30:54.607Z,21.27
2022-12-03T09:33:22.261Z,22.47
2022-12-03T09:35:49.685Z,23.97
2022-12-03T09:38:17.058Z,22.77
2022-12-03T09:40:44.536Z,22.30
2022-12-03T09:43:13.369Z,22.27
2022-12-03T09:45:40.943Z,23.37
2022-12-03T09:48:08.545Z,23.57
2022-12-03T09:50:41.735Z,23.07
2022-12-03T09:53:16.550Z,23.50
2022-12-03T09:55:46.757Z,22.10
2022-12-03T09:58:18.755Z,21.33
2022-12-03T10:01:01.421Z,20.53
2022-12-03T10:03:32.228Z,26.77
2022-12-03T10:05:59.716Z,21.03
2022-12-03T10:08:32.656Z,21.20
2022-12-03T10:11:00.189Z,20.47
2022-12-03T10:13:31.088Z,21.87
2022-12-03T10:16:01.429Z,23.17
2022-12-03T10:18:38.212Z,22.10
2022-12-03T10:21:39.176Z,22.10
2022-12-03T10:24:36.014Z,23.33
2022-12-03T10:27:24.197Z,21.27
2022-12-03T10:30:00.582Z,22.30
2022-12-03T10:32:42.417Z,24.53
2022-12-03T10:35:13.732Z,23.30
2022-12-03T10:38:25.348Z,22.33
2022-12-03T10:40:53.402Z,22.90
2022-12-03T10:43:24.372Z,23.23
2022-12-03T10:46:12.360Z,24.50
2022-12-03T10:48:40.071Z,22.50
2022-12-03T10:51:22.980Z,22.07
2022-12-03T10:53:51.635Z,21.97
2022-12-03T10:56:26.251Z,22.27
2022-12-03T10:58:54.819Z,22.97
2022-12-03T11:01:25.635Z,23.03
2022-12-03T11:03:56.969Z,23.33
2022-12-03T11:06:24.505Z,25.53
2022-12-03T11:08:57.803Z,21.70
2022-12-03T11:11:31.481Z,26.23
2022-12-03T11:14:04.486Z,27.33
2022-12-03T11:16:41.174Z,26.83
2022-12-03T11:19:37.569Z,26.37
2022-12-03T11:22:05.159Z,25.63
2022-12-03T11:24:36.981Z,25.40
2022-12-03T11:27:04.273Z,25.47
2022-12-03T11:30:00.128Z,24.90
2022-12-03T11:32:42.292Z,26.13
2022-12-03T11:35:13.958Z,26.03
2022-12-03T11:37:41.529Z,25.57
2022-12-03T11:40:17.956Z,25.40
2022-12-03T11:42:47.774Z,26.97
2022-12-03T11:45:35.764Z,25.23
2022-12-03T11:48:12.876Z,26.97
2022-12-03T11:50:53.401Z,24.77
2022-12-03T11:53:25.517Z,26.30
2022-12-03T11:56:09.286Z,24.13
2022-12-03T11:58:40.160Z,24.13
2022-12-03T12:01:08.804Z,23.27
2022-12-03T12:03:44.707Z,24.23
2022-12-03T12:06:16.588Z,25.20
2022-12-03T12:08:53.034Z,24.80
2022-12-03T12:11:33.685Z,24.67
2022-12-03T12:14:09.355Z,25.90
2022-12-03T12:16:53.263Z,27.23
2022-12-03T12:19:43.251Z,25.47
2022-12-03T12:22:18.216Z,25.73
2022-12-03T12:24:51.860Z,27.37
2022-12-03T12:27:45.196Z,32.37
2022-12-03T12:30:19.524Z,26.60
2022-12-03T12:33:08.996Z,25.73
2022-12-03T12:35:37.118Z,25.40
2022-12-03T12:38:07.620Z,26.93
2022-12-03T12:40:39.504Z,26.00
2022-12-03T12:43:25.687Z,25.17
2022-12-03T12:46:18.760Z,26.13
2022-12-03T12:48:49.227Z,27.13
2022-12-03T12:51:21.676Z,27.30
2022-12-03T12:53:50.437Z,28.57
2022-12-03T12:56:24.855Z,27.00
2022-12-03T12:58:53.952Z,27.00
2022-12-03T13:01:32.440Z,26.83
2022-12-03T13:03:59.940Z,26.60
2022-12-03T13:06:31.110Z,27.10
2022-12-03T13:09:01.387Z,28.53
2022-12-03T13:11:45.841Z,28.27
2022-12-03T13:14:33.640Z,27.23
2022-12-03T13:17:17.361Z,26.10
2022-12-03T13:20:01.986Z,26.90
2022-12-03T13:22:32.717Z,27.27
2022-12-03T13:25:57.779Z,27.27
2022-12-03T13:28:22.532Z,31.87
2022-12-03T13:30:50.626Z,31.27
2022-12-03T13:33:27.850Z,29.63
2022-12-03T13:35:56.618Z,33.73
2022-12-03T13:38:26.039Z,36.80
2022-12-03T13:41:00.672Z,37.40
2022-12-03T13:43:33.471Z,39.80
2022-12-03T13:46:01.429Z,43.50
2022-12-03T13:48:35.776Z,38.30
2022-12-03T13:51:24.092Z,34.10
2022-12-03T13:53:51.760Z,36.57
2022-12-03T13:56:30.608Z,39.70
2022-12-03T13:59:00.705Z,43.37
2022-12-03T14:01:29.237Z,42.30
2022-12-03T14:03:57.259Z,41.47
2022-12-03T14:06:24.664Z,35.97
2022-12-03T14:08:52.094Z,32.43
2022-12-03T14:11:38.065Z,33.00
2022-12-03T14:14:05.598Z,30.90
2022-12-03T14:16:33.135Z,31.23
2022-12-03T14:19:00.784Z,31.80
2022-12-03T14:21:28.277Z,31.60
2022-12-03T14:23:55.732Z,33.37
2022-12-03T14:26:23.158Z,32.60
2022-12-03T14:28:50.643Z,34.07
2022-12-03T14:31:18.089Z,33.03
2022-12-03T14:33:45.633Z,36.47
2022-12-03T14:36:13.057Z,34.53
2022-12-03T14:38:40.475Z,34.20
2022-12-03T14:41:27.839Z,33.70
2022-12-03T14:43:55.327Z,34.80
2022-12-03T14:46:22.836Z,35.57
2022-12-03T14:48:50.366Z,37.17
2022-12-03T14:51:17.850Z,38.50
2022-12-03T14:53:45.281Z,48.83
2022-12-03T14:56:12.741Z,41.83
2022-12-03T14:58:40.361Z,39.20
2022-12-03T15:01:08.017Z,39.00
2022-12-03T15:03:35.470Z,40.83
2022-12-03T15:06:02.930Z,38.50
2022-12-03T15:08:30.351Z,40.37
2022-12-03T15:10:57.831Z,39.33
2022-12-03T15:13:25.249Z,37.10
2022-12-03T15:15:52.672Z,39.27
2022-12-03T15:18:20.089Z,37.90
2022-12-03T15:20:47.585Z,38.07
2022-12-03T15:23:14.986Z,38.93
2022-12-03T15:25:42.582Z,39.83
2022-12-03T15:28:10.721Z,37.97
2022-12-03T15:30:38.348Z,41.40
2022-12-03T15:33:05.892Z,38.10
2022-12-03T15:35:33.749Z,36.50
2022-12-03T15:38:01.327Z,36.20
2022-12-03T15:40:29.057Z,35.90
2022-12-03T15:42:56.533Z,36.50
2022-12-03T15:45:24.061Z,36.53
2022-12-03T15:47:51.524Z,37.43
2022-12-03T15:50:18.937Z,39.23
2022-12-03T15:52:46.330Z,41.37
2022-12-03T15:55:13.984Z,40.57
2022-12-03T15:57:41.492Z,43.30
2022-12-03T16:00:11.082Z,39.80
2022-12-03T16:02:38.576Z,37.77
2022-12-03T16:05:10.611Z,37.73
2022-12-03T16:07:38.675Z,37.07
2022-12-03T16:10:08.900Z,36.40
2022-12-03T16:12:36.367Z,36.57
2022-12-03T16:15:04.514Z,38.27
2022-12-03T16:17:31.929Z,40.13
2022-12-03T16:19:59.422Z,53.07
2022-12-03T16:22:26.818Z,47.80
2022-12-03T16:24:54.214Z,37.60
2022-12-03T16:27:25.430Z,41.50
2022-12-03T16:29:53.561Z,39.87
2022-12-03T16:32:21.249Z,41.30
2022-12-03T16:34:49.294Z,43.27
2022-12-03T16:37:16.760Z,41.27
2022-12-03T16:39:44.330Z,39.73
2022-12-03T16:42:16.932Z,40.57
2022-12-03T16:45:14.516Z,38.97
2022-12-03T16:47:41.965Z,41.50
2022-12-03T16:50:14.607Z,39.60
2022-12-03T16:52:47.463Z,41.53
2022-12-03T16:55:14.934Z,41.73
2022-12-03T16:57:42.380Z,43.00
2022-12-03T17:00:10.660Z,44.63
2022-12-03T17:02:38.140Z,41.90
2022-12-03T17:05:06.227Z,42.70
2022-12-03T17:07:33.721Z,41.23
2022-12-03T17:10:01.311Z,43.53
2022-12-03T17:12:37.611Z,45.00
2022-12-03T17:15:15.707Z,43.27
2022-12-03T17:17:43.118Z,43.67
2022-12-03T17:20:12.685Z,43.97
2022-12-03T17:22:40.598Z,43.33
2022-12-03T17:25:08.943Z,44.33
2022-12-03T17:27:40.820Z,51.70
2022-12-03T17:30:13.027Z,51.20
2022-12-03T17:32:40.758Z,55.50
2022-12-03T17:35:09.470Z,56.73
2022-12-03T17:37:37.544Z,80.30
2022-12-03T17:40:06.994Z,73.63
2022-12-03T17:42:34.710Z,57.40
2022-12-03T17:45:02.377Z,47.97
2022-12-03T17:47:29.913Z,45.97
2022-12-03T17:49:57.816Z,47.30
2022-12-03T17:52:25.282Z,47.97
2022-12-03T17:55:10.862Z,47.67
2022-12-03T17:57:39.575Z,46.07
2022-12-03T18:00:08.055Z,47.07
2022-12-03T18:02:35.435Z,49.87
2022-12-03T18:05:02.868Z,50.67
2022-12-03T18:07:30.336Z,44.20
2022-12-03T18:09:58.679Z,46.93
2022-12-03T18:12:26.266Z,47.10
2022-12-03T18:14:53.697Z,49.57
2022-12-03T18:17:21.097Z,48.60
2022-12-03T18:19:48.714Z,48.63
2022-12-03T18:22:16.811Z,47.47
2022-12-03T18:24:46.285Z,46.00
2022-12-03T18:27:15.111Z,47.30
2022-12-03T18:29:42.522Z,48.60
2022-12-03T18:32:27.154Z,51.93
2022-12-03T18:34:56.816Z,47.00
2022-12-03T18:37:28.368Z,48.07
2022-12-03T18:39:57.135Z,46.53
2022-12-03T18:42:25.685Z,47.53
2022-12-03T18:44:55.987Z,57.30
2022-12-03T18:47:28.235Z,43.60
2022-12-03T18:49:56.720Z,45.30
2022-12-03T18:52:25.313Z,44.80
2022-12-03T18:54:53.277Z,44.10
2022-12-03T18:57:20.788Z,42.77
2022-12-03T18:59:48.247Z,42.30
2022-12-03T19:05:09.872Z,43.00
2022-12-03T19:07:37.826Z,43.13
2022-12-03T19:10:06.786Z,50.33
2022-12-03T19:12:34.518Z,46.23
2022-12-03T19:15:03.010Z,55.57
2022-12-03T19:17:30.471Z,47.80
2022-12-03T19:19:58.277Z,44.87
2022-12-03T19:22:25.833Z,43.27
2022-12-03T19:24:53.296Z,43.90
2022-12-03T19:27:20.721Z,45.27
2022-12-03T19:29:51.325Z,43.40
2022-12-03T19:32:18.824Z,41.60
2022-12-03T19:34:46.299Z,43.83
2022-12-03T19:37:13.769Z,41.40
2022-12-03T19:39:41.499Z,42.63
2022-12-03T19:42:09.492Z,42.63
2022-12-03T19:44:37.027Z,42.13
2022-12-03T19:47:04.455Z,42.20
2022-12-03T19:49:32.021Z,42.30
2022-12-03T19:51:59.454Z,47.00
2022-12-03T19:54:27.051Z,48.43
2022-12-03T19:56:54.491Z,41.60
2022-12-03T19:59:22.002Z,40.07
2022-12-03T20:01:49.556Z,41.53
2022-12-03T20:04:17.139Z,39.53
2022-12-03T20:06:45.584Z,38.70
2022-12-03T20:09:18.039Z,37.87
2022-12-03T20:11:46.126Z,37.87
2022-12-03T20:14:18.032Z,38.27
2022-12-03T20:16:46.164Z,36.20
2022-12-03T20:19:16.505Z,38.67
2022-12-03T20:21:45.042Z,37.00
2022-12-03T20:24:17.486Z,35.97
2022-12-03T20:26:45.124Z,42.47
2022-12-03T20:29:12.938Z,36.37
2022-12-03T20:31:40.548Z,39.07
2022-12-03T20:34:08.303Z,35.10
2022-12-03T20:36:35.874Z,38.03
2022-12-03T20:39:06.285Z,37.73
2022-12-03T20:41:36.526Z,36.13
2022-12-03T20:44:06.456Z,36.37
2022-12-03T20:46:34.195Z,38.30
2022-12-03T20:49:01.860Z,37.17
2022-12-03T20:52:06.331Z,35.30
2022-12-03T20:54:33.784Z,38.03
2022-12-03T20:57:01.260Z,38.30
2022-12-03T20:59:28.941Z,37.40
2022-12-03T21:01:57.180Z,38.87
2022-12-03T21:04:24.820Z,37.50
2022-12-03T21:06:52.312Z,37.73
2022-12-03T21:09:19.906Z,40.30
2022-12-03T21:11:47.348Z,40.87
2022-12-03T21:14:14.755Z,40.93
2022-12-03T21:17:07.208Z,41.60
2022-12-03T21:19:33.852Z,38.73
2022-12-03T21:22:01.291Z,35.00
2022-12-03T21:24:28.832Z,36.37
2022-12-03T21:26:56.509Z,35.40
2022-12-03T21:29:24.799Z,37.53
2022-12-03T21:31:52.423Z,37.73
2022-12-03T21:34:19.828Z,36.00
2022-12-03T21:36:47.267Z,34.73
2022-12-03T21:39:14.731Z,37.33
2022-12-03T21:42:34.658Z,36.00
2022-12-03T21:44:29.548Z,36.10
2022-12-03T21:47:12.463Z,33.57
2022-12-03T21:49:41.798Z,35.07
2022-12-03T21:52:09.768Z,34.67
2022-12-03T21:54:37.227Z,33.87
2022-12-03T21:57:04.663Z,33.13
2022-12-03T21:59:32.216Z,35.40
2022-12-03T22:01:59.671Z,34.97
2022-12-03T22:04:27.174Z,36.83
2022-12-03T22:06:55.332Z,39.37
2022-12-03T22:09:26.475Z,36.27
2022-12-03T22:11:57.059Z,31.63
2022-12-03T22:14:24.550Z,34.20
2022-12-03T22:16:52.007Z,33.50
2022-12-03T22:19:22.672Z,34.30
2022-12-03T22:21:50.388Z,32.67
2022-12-03T22:24:19.389Z,33.70
2022-12-03T22:26:47.742Z,36.67
2022-12-03T22:29:15.757Z,34.30
2022-12-03T22:31:43.347Z,38.23
2022-12-03T22:34:10.779Z,42.67
2022-12-03T22:36:38.330Z,33.67
2022-12-03T22:39:05.929Z,31.40
2022-12-03T22:41:33.362Z,35.10
2022-12-03T22:44:00.770Z,33.30
2022-12-03T22:46:28.234Z,34.60
2022-12-03T22:48:55.719Z,32.17
2022-12-03T22:51:25.388Z,31.53
2022-12-03T22:53:59.060Z,31.73
2022-12-03T22:56:29.768Z,34.50
2022-12-03T22:58:57.752Z,34.17
2022-12-03T23:01:34.387Z,32.87
2022-12-03T23:04:03.009Z,32.60
2022-12-03T23:06:31.911Z,34.20
2022-12-03T23:08:59.874Z,33.03
2022-12-03T23:11:28.348Z,32.43
2022-12-03T23:13:56.877Z,31.77
2022-12-03T23:16:29.129Z,31.47
2022-12-03T23:19:02.567Z,31.77
2022-12-03T23:21:33.464Z,31.77
2022-12-03T23:24:03.860Z,32.23
2022-12-03T23:26:36.148Z,31.60
2022-12-03T23:29:04.876Z,31.77
2022-12-03T23:31:34.099Z,32.40
2022-12-03T23:34:02.118Z,33.57
2022-12-03T23:36:32.434Z,33.50
2022-12-03T23:38:59.997Z,31.80
2022-12-03T23:41:27.778Z,34.13
2022-12-03T23:43:56.847Z,33.33
2022-12-03T23:46:27.530Z,33.07
2022-12-03T23:48:55.693Z,31.30
2022-12-03T23:51:25.342Z,30.23
2022-12-03T23:53:54.748Z,31.67
2022-12-03T23:56:29.486Z,30.70
2022-12-03T23:58:58.258Z,32.10
